sensor_id;sensor_type;location;lat;lon;timestamp;P1;durP1;ratioP1;P2;durP2;ratioP2
16826;SDS011;8530;49.540;8.576;2022-11-15T00:00:44;12.50;;;5.83;;
16826;SDS011;8530;49.540;8.576;2022-11-15T00:03:12;8.33;;;5.80;;
16826;SDS011;8530;49.540;8.576;2022-11-15T00:05:40;9.77;;;6.00;;
16826;SDS011;8530;49.540;8.576;2022-11-15T00:08:10;8.63;;;6.40;;
16826;SDS011;8530;49.540;8.576;2022-11-15T00:10:37;5.93;;;5.33;;
16826;SDS011;8530;49.540;8.576;2022-11-15T00:13:05;9.87;;;5.33;;
16826;SDS011;8530;49.540;8.576;2022-11-15T00:15:34;9.07;;;5.77;;
16826;SDS011;8530;49.540;8.576;2022-11-15T00:18:02;6.13;;;5.53;;
16826;SDS011;8530;49.540;8.576;2022-11-15T00:20:31;6.53;;;5.83;;
16826;SDS011;8530;49.540;8.576;2022-11-15T00:23:00;8.70;;;5.87;;
16826;SDS011;8530;49.540;8.576;2022-11-15T00:25:30;11.80;;;6.30;;
16826;SDS011;8530;49.540;8.576;2022-11-15T00:27:57;6.87;;;4.63;;
16826;SDS011;8530;49.540;8.576;2022-11-15T00:30:25;8.30;;;5.43;;
16826;SDS011;8530;49.540;8.576;2022-11-15T00:32:52;5.80;;;4.67;;
16826;SDS011;8530;49.540;8.576;2022-11-15T00:35:20;7.03;;;5.30;;
16826;SDS011;8530;49.540;8.576;2022-11-15T00:37:47;8.00;;;6.00;;
16826;SDS011;8530;49.540;8.576;2022-11-15T00:40:14;7.80;;;5.87;;
16826;SDS011;8530;49.540;8.576;2022-11-15T00:42:43;8.03;;;5.50;;
16826;SDS011;8530;49.540;8.576;2022-11-15T00:45:09;9.20;;;6.63;;
16826;SDS011;8530;49.540;8.576;2022-11-15T00:47:36;8.20;;;5.37;;
16826;SDS011;8530;49.540;8.576;2022-11-15T00:50:03;8.43;;;6.63;;
16826;SDS011;8530;49.540;8.576;2022-11-15T00:52:31;8.87;;;6.10;;
16826;SDS011;8530;49.540;8.576;2022-11-15T00:54:57;8.80;;;6.93;;
16826;SDS011;8530;49.540;8.576;2022-11-15T00:57:24;8.87;;;6.43;;
16826;SDS011;8530;49.540;8.576;2022-11-15T00:59:52;8.57;;;6.10;;
16826;SDS011;8530;49.540;8.576;2022-11-15T01:02:19;8.20;;;6.77;;
16826;SDS011;8530;49.540;8.576;2022-11-15T01:04:45;8.53;;;6.07;;
16826;SDS011;8530;49.540;8.576;2022-11-15T01:07:12;10.93;;;6.90;;
16826;SDS011;8530;49.540;8.576;2022-11-15T01:09:39;8.30;;;6.63;;
16826;SDS011;8530;49.540;8.576;2022-11-15T01:12:06;8.20;;;6.60;;
16826;SDS011;8530;49.540;8.576;2022-11-15T01:14:33;9.63;;;6.73;;
16826;SDS011;8530;49.540;8.576;2022-11-15T01:17:02;9.33;;;6.10;;
16826;SDS011;8530;49.540;8.576;2022-11-15T01:19:28;7.13;;;5.77;;
16826;SDS011;8530;49.540;8.576;2022-11-15T01:21:55;22.97;;;7.10;;
16826;SDS011;8530;49.540;8.576;2022-11-15T01:24:22;9.03;;;6.90;;
16826;SDS011;8530;49.540;8.576;2022-11-15T01:26:48;7.97;;;6.13;;
16826;SDS011;8530;49.540;8.576;2022-11-15T01:29:15;12.87;;;6.33;;
16826;SDS011;8530;49.540;8.576;2022-11-15T01:31:42;8.70;;;6.40;;
16826;SDS011;8530;49.540;8.576;2022-11-15T01:34:11;6.03;;;5.47;;
16826;SDS011;8530;49.540;8.576;2022-11-15T01:36:40;10.17;;;6.80;;
16826;SDS011;8530;49.540;8.576;2022-11-15T01:39:07;6.57;;;5.60;;
16826;SDS011;8530;49.540;8.576;2022-11-15T01:41:35;5.80;;;4.80;;
16826;SDS011;8530;49.540;8.576;2022-11-15T01:47:06;6.30;;;5.63;;
16826;SDS011;8530;49.540;8.576;2022-11-15T01:49:38;9.97;;;5.23;;
16826;SDS011;8530;49.540;8.576;2022-11-15T01:52:08;7.50;;;5.37;;
16826;SDS011;8530;49.540;8.576;2022-11-15T01:54:38;7.17;;;5.43;;
16826;SDS011;8530;49.540;8.576;2022-11-15T01:57:06;9.70;;;5.97;;
16826;SDS011;8530;49.540;8.576;2022-11-15T01:59:35;6.17;;;5.30;;
16826;SDS011;8530;49.540;8.576;2022-11-15T02:02:03;6.37;;;4.57;;
16826;SDS011;8530;49.540;8.576;2022-11-15T02:04:31;9.20;;;5.70;;
16826;SDS011;8530;49.540;8.576;2022-11-15T02:07:01;10.70;;;5.50;;
16826;SDS011;8530;49.540;8.576;2022-11-15T02:09:29;7.33;;;5.77;;
16826;SDS011;8530;49.540;8.576;2022-11-15T02:11:56;7.00;;;5.00;;
16826;SDS011;8530;49.540;8.576;2022-11-15T02:14:23;7.90;;;4.90;;
16826;SDS011;8530;49.540;8.576;2022-11-15T02:16:54;7.07;;;5.20;;
16826;SDS011;8530;49.540;8.576;2022-11-15T02:19:35;10.57;;;5.60;;
16826;SDS011;8530;49.540;8.576;2022-11-15T02:22:25;8.40;;;5.50;;
16826;SDS011;8530;49.540;8.576;2022-11-15T02:25:04;8.53;;;4.87;;
16826;SDS011;8530;49.540;8.576;2022-11-15T02:27:56;6.17;;;4.83;;
16826;SDS011;8530;49.540;8.576;2022-11-15T02:30:44;7.50;;;5.37;;
16826;SDS011;8530;49.540;8.576;2022-11-15T02:33:17;8.70;;;5.50;;
16826;SDS011;8530;49.540;8.576;2022-11-15T02:35:57;4.80;;;4.40;;
16826;SDS011;8530;49.540;8.576;2022-11-15T02:38:29;6.87;;;5.27;;
16826;SDS011;8530;49.540;8.576;2022-11-15T02:41:04;6.13;;;5.43;;
16826;SDS011;8530;49.540;8.576;2022-11-15T02:43:36;6.57;;;5.80;;
16826;SDS011;8530;49.540;8.576;2022-11-15T02:46:27;9.90;;;5.63;;
16826;SDS011;8530;49.540;8.576;2022-11-15T02:49:15;6.17;;;5.57;;
16826;SDS011;8530;49.540;8.576;2022-11-15T02:51:42;6.37;;;5.30;;
16826;SDS011;8530;49.540;8.576;2022-11-15T02:54:12;6.00;;;5.30;;
16826;SDS011;8530;49.540;8.576;2022-11-15T02:56:43;5.83;;;4.80;;
16826;SDS011;8530;49.540;8.576;2022-11-15T02:59:24;6.77;;;6.03;;
16826;SDS011;8530;49.540;8.576;2022-11-15T03:02:20;5.93;;;5.23;;
16826;SDS011;8530;49.540;8.576;2022-11-15T03:04:56;11.00;;;5.43;;
16826;SDS011;8530;49.540;8.576;2022-11-15T03:07:28;5.57;;;5.00;;
16826;SDS011;8530;49.540;8.576;2022-11-15T03:10:00;6.33;;;4.43;;
16826;SDS011;8530;49.540;8.576;2022-11-15T03:12:33;10.27;;;6.00;;
16826;SDS011;8530;49.540;8.576;2022-11-15T03:15:08;6.63;;;5.33;;
16826;SDS011;8530;49.540;8.576;2022-11-15T03:17:43;9.13;;;4.87;;
16826;SDS011;8530;49.540;8.576;2022-11-15T03:20:15;7.20;;;5.40;;
16826;SDS011;8530;49.540;8.576;2022-11-15T03:22:44;5.33;;;4.83;;
16826;SDS011;8530;49.540;8.576;2022-11-15T03:25:13;10.30;;;6.10;;
16826;SDS011;8530;49.540;8.576;2022-11-15T03:27:45;10.70;;;5.73;;
16826;SDS011;8530;49.540;8.576;2022-11-15T03:30:16;4.50;;;4.10;;
16826;SDS011;8530;49.540;8.576;2022-11-15T03:32:46;8.77;;;5.50;;
16826;SDS011;8530;49.540;8.576;2022-11-15T03:35:18;6.10;;;5.17;;
16826;SDS011;8530;49.540;8.576;2022-11-15T03:37:49;5.90;;;5.30;;
16826;SDS011;8530;49.540;8.576;2022-11-15T03:40:22;11.13;;;5.50;;
16826;SDS011;8530;49.540;8.576;2022-11-15T03:42:53;5.57;;;4.90;;
16826;SDS011;8530;49.540;8.576;2022-11-15T03:45:28;9.60;;;6.30;;
16826;SDS011;8530;49.540;8.576;2022-11-15T03:48:01;7.63;;;5.60;;
16826;SDS011;8530;49.540;8.576;2022-11-15T03:50:33;8.23;;;5.80;;
16826;SDS011;8530;49.540;8.576;2022-11-15T03:53:03;8.20;;;5.67;;
16826;SDS011;8530;49.540;8.576;2022-11-15T03:55:31;6.07;;;5.47;;
16826;SDS011;8530;49.540;8.576;2022-11-15T03:58:01;11.73;;;5.13;;
16826;SDS011;8530;49.540;8.576;2022-11-15T04:00:28;21.43;;;6.07;;
16826;SDS011;8530;49.540;8.576;2022-11-15T04:02:56;6.70;;;5.70;;
16826;SDS011;8530;49.540;8.576;2022-11-15T04:05:25;11.03;;;6.40;;
16826;SDS011;8530;49.540;8.576;2022-11-15T04:07:51;7.30;;;5.60;;
16826;SDS011;8530;49.540;8.576;2022-11-15T04:10:18;8.40;;;5.00;;
16826;SDS011;8530;49.540;8.576;2022-11-15T04:12:45;5.83;;;5.13;;
16826;SDS011;8530;49.540;8.576;2022-11-15T04:15:13;6.60;;;5.37;;
16826;SDS011;8530;49.540;8.576;2022-11-15T04:17:42;7.50;;;5.23;;
16826;SDS011;8530;49.540;8.576;2022-11-15T04:20:12;8.80;;;5.50;;
16826;SDS011;8530;49.540;8.576;2022-11-15T04:23:01;8.03;;;5.00;;
16826;SDS011;8530;49.540;8.576;2022-11-15T04:25:47;4.93;;;4.10;;
16826;SDS011;8530;49.540;8.576;2022-11-15T04:28:18;8.73;;;5.10;;
16826;SDS011;8530;49.540;8.576;2022-11-15T04:30:46;6.67;;;5.00;;
16826;SDS011;8530;49.540;8.576;2022-11-15T04:33:13;6.23;;;5.13;;
16826;SDS011;8530;49.540;8.576;2022-11-15T04:35:40;6.70;;;5.40;;
16826;SDS011;8530;49.540;8.576;2022-11-15T04:38:09;4.67;;;4.27;;
16826;SDS011;8530;49.540;8.576;2022-11-15T04:40:36;5.40;;;4.90;;
16826;SDS011;8530;49.540;8.576;2022-11-15T04:43:03;7.83;;;5.77;;
16826;SDS011;8530;49.540;8.576;2022-11-15T04:45:30;8.23;;;5.23;;
16826;SDS011;8530;49.540;8.576;2022-11-15T04:47:57;5.90;;;5.30;;
16826;SDS011;8530;49.540;8.576;2022-11-15T04:50:24;6.17;;;5.20;;
16826;SDS011;8530;49.540;8.576;2022-11-15T04:52:51;5.53;;;4.70;;
16826;SDS011;8530;49.540;8.576;2022-11-15T04:55:21;7.97;;;4.43;;
16826;SDS011;8530;49.540;8.576;2022-11-15T04:57:48;5.20;;;4.73;;
16826;SDS011;8530;49.540;8.576;2022-11-15T05:00:24;6.30;;;5.43;;
16826;SDS011;8530;49.540;8.576;2022-11-15T05:02:52;7.40;;;4.90;;
16826;SDS011;8530;49.540;8.576;2022-11-15T05:05:36;7.03;;;5.00;;
16826;SDS011;8530;49.540;8.576;2022-11-15T05:08:03;4.97;;;4.50;;
16826;SDS011;8530;49.540;8.576;2022-11-15T05:10:31;13.33;;;6.27;;
16826;SDS011;8530;49.540;8.576;2022-11-15T05:12:58;5.23;;;4.73;;
16826;SDS011;8530;49.540;8.576;2022-11-15T05:15:26;7.53;;;5.23;;
16826;SDS011;8530;49.540;8.576;2022-11-15T05:17:56;13.63;;;5.00;;
16826;SDS011;8530;49.540;8.576;2022-11-15T05:20:24;7.90;;;4.93;;
16826;SDS011;8530;49.540;8.576;2022-11-15T05:22:51;6.00;;;4.80;;
16826;SDS011;8530;49.540;8.576;2022-11-15T05:25:19;6.17;;;4.67;;
16826;SDS011;8530;49.540;8.576;2022-11-15T05:27:47;6.77;;;4.73;;
16826;SDS011;8530;49.540;8.576;2022-11-15T05:30:14;5.43;;;4.67;;
16826;SDS011;8530;49.540;8.576;2022-11-15T05:32:42;5.50;;;4.97;;
16826;SDS011;8530;49.540;8.576;2022-11-15T05:35:10;6.23;;;5.63;;
16826;SDS011;8530;49.540;8.576;2022-11-15T05:37:42;6.77;;;5.10;;
16826;SDS011;8530;49.540;8.576;2022-11-15T05:40:09;5.93;;;5.33;;
16826;SDS011;8530;49.540;8.576;2022-11-15T05:42:36;6.37;;;4.87;;
16826;SDS011;8530;49.540;8.576;2022-11-15T05:45:05;6.77;;;5.40;;
16826;SDS011;8530;49.540;8.576;2022-11-15T05:47:33;7.70;;;5.70;;
16826;SDS011;8530;49.540;8.576;2022-11-15T05:50:03;7.27;;;4.73;;
16826;SDS011;8530;49.540;8.576;2022-11-15T05:52:31;5.80;;;5.07;;
16826;SDS011;8530;49.540;8.576;2022-11-15T05:55:02;10.47;;;6.10;;
16826;SDS011;8530;49.540;8.576;2022-11-15T05:57:30;11.50;;;6.43;;
16826;SDS011;8530;49.540;8.576;2022-11-15T05:59:57;8.80;;;5.70;;
16826;SDS011;8530;49.540;8.576;2022-11-15T06:02:26;9.90;;;5.30;;
16826;SDS011;8530;49.540;8.576;2022-11-15T06:04:52;10.00;;;5.10;;
16826;SDS011;8530;49.540;8.576;2022-11-15T06:07:21;6.40;;;4.90;;
16826;SDS011;8530;49.540;8.576;2022-11-15T06:09:48;5.57;;;4.63;;
16826;SDS011;8530;49.540;8.576;2022-11-15T06:12:15;9.70;;;5.07;;
16826;SDS011;8530;49.540;8.576;2022-11-15T06:14:41;5.53;;;5.00;;
16826;SDS011;8530;49.540;8.576;2022-11-15T06:17:08;5.30;;;4.37;;
16826;SDS011;8530;49.540;8.576;2022-11-15T06:19:37;10.10;;;5.60;;
16826;SDS011;8530;49.540;8.576;2022-11-15T06:22:03;6.30;;;5.30;;
16826;SDS011;8530;49.540;8.576;2022-11-15T06:24:30;5.30;;;4.80;;
16826;SDS011;8530;49.540;8.576;2022-11-15T06:26:57;7.20;;;5.43;;
16826;SDS011;8530;49.540;8.576;2022-11-15T06:29:24;6.67;;;5.97;;
16826;SDS011;8530;49.540;8.576;2022-11-15T06:31:50;6.83;;;4.40;;
16826;SDS011;8530;49.540;8.576;2022-11-15T06:34:17;6.30;;;4.77;;
16826;SDS011;8530;49.540;8.576;2022-11-15T06:36:46;6.47;;;5.57;;
16826;SDS011;8530;49.540;8.576;2022-11-15T06:39:12;7.50;;;5.37;;
16826;SDS011;8530;49.540;8.576;2022-11-15T06:41:39;6.70;;;4.43;;
16826;SDS011;8530;49.540;8.576;2022-11-15T06:44:06;7.33;;;5.50;;
16826;SDS011;8530;49.540;8.576;2022-11-15T06:46:33;11.57;;;6.53;;
16826;SDS011;8530;49.540;8.576;2022-11-15T06:49:00;8.10;;;6.10;;
16826;SDS011;8530;49.540;8.576;2022-11-15T06:51:27;9.27;;;5.50;;
16826;SDS011;8530;49.540;8.576;2022-11-15T06:53:55;7.70;;;6.13;;
16826;SDS011;8530;49.540;8.576;2022-11-15T06:56:22;7.13;;;5.17;;
16826;SDS011;8530;49.540;8.576;2022-11-15T06:58:48;10.90;;;5.83;;
16826;SDS011;8530;49.540;8.576;2022-11-15T07:01:15;9.53;;;5.93;;
16826;SDS011;8530;49.540;8.576;2022-11-15T07:03:42;10.30;;;6.60;;
16826;SDS011;8530;49.540;8.576;2022-11-15T07:06:09;8.10;;;5.10;;
16826;SDS011;8530;49.540;8.576;2022-11-15T07:08:36;8.27;;;5.20;;
16826;SDS011;8530;49.540;8.576;2022-11-15T07:11:05;8.50;;;6.23;;
16826;SDS011;8530;49.540;8.576;2022-11-15T07:13:34;6.87;;;6.00;;
16826;SDS011;8530;49.540;8.576;2022-11-15T07:16:02;5.50;;;5.00;;
16826;SDS011;8530;49.540;8.576;2022-11-15T07:18:30;9.40;;;5.40;;
16826;SDS011;8530;49.540;8.576;2022-11-15T07:20:59;8.63;;;4.93;;
16826;SDS011;8530;49.540;8.576;2022-11-15T07:23:27;6.73;;;5.50;;
16826;SDS011;8530;49.540;8.576;2022-11-15T07:25:56;8.87;;;5.73;;
16826;SDS011;8530;49.540;8.576;2022-11-15T07:28:25;6.33;;;5.50;;
16826;SDS011;8530;49.540;8.576;2022-11-15T07:30:52;8.33;;;5.50;;
16826;SDS011;8530;49.540;8.576;2022-11-15T07:33:19;7.57;;;5.60;;
16826;SDS011;8530;49.540;8.576;2022-11-15T07:35:47;8.63;;;5.73;;
16826;SDS011;8530;49.540;8.576;2022-11-15T07:38:17;9.93;;;5.37;;
16826;SDS011;8530;49.540;8.576;2022-11-15T07:40:45;10.83;;;6.60;;
16826;SDS011;8530;49.540;8.576;2022-11-15T07:43:12;17.60;;;5.13;;
16826;SDS011;8530;49.540;8.576;2022-11-15T07:45:41;5.20;;;4.70;;
16826;SDS011;8530;49.540;8.576;2022-11-15T07:48:09;8.03;;;6.40;;
16826;SDS011;8530;49.540;8.576;2022-11-15T07:50:36;18.50;;;6.30;;
16826;SDS011;8530;49.540;8.576;2022-11-15T07:53:02;12.30;;;5.53;;
16826;SDS011;8530;49.540;8.576;2022-11-15T07:55:29;8.30;;;5.80;;
16826;SDS011;8530;49.540;8.576;2022-11-15T07:58:00;6.90;;;5.73;;
16826;SDS011;8530;49.540;8.576;2022-11-15T08:00:27;11.57;;;5.53;;
16826;SDS011;8530;49.540;8.576;2022-11-15T08:03:02;9.10;;;6.37;;
16826;SDS011;8530;49.540;8.576;2022-11-15T08:05:29;8.10;;;5.17;;
16826;SDS011;8530;49.540;8.576;2022-11-15T08:07:56;14.30;;;6.20;;
16826;SDS011;8530;49.540;8.576;2022-11-15T08:10:23;10.90;;;6.30;;
16826;SDS011;8530;49.540;8.576;2022-11-15T08:12:56;6.60;;;5.27;;
16826;SDS011;8530;49.540;8.576;2022-11-15T08:15:23;8.30;;;5.27;;
16826;SDS011;8530;49.540;8.576;2022-11-15T08:17:53;7.73;;;5.70;;
16826;SDS011;8530;49.540;8.576;2022-11-15T08:20:21;10.37;;;5.70;;
16826;SDS011;8530;49.540;8.576;2022-11-15T08:22:48;7.20;;;6.33;;
16826;SDS011;8530;49.540;8.576;2022-11-15T08:25:15;9.73;;;5.03;;
16826;SDS011;8530;49.540;8.576;2022-11-15T08:27:43;7.70;;;5.20;;
16826;SDS011;8530;49.540;8.576;2022-11-15T08:30:10;5.97;;;5.27;;
16826;SDS011;8530;49.540;8.576;2022-11-15T08:32:38;9.53;;;5.13;;
16826;SDS011;8530;49.540;8.576;2022-11-15T08:35:05;8.30;;;4.67;;
16826;SDS011;8530;49.540;8.576;2022-11-15T08:37:35;6.00;;;4.83;;
16826;SDS011;8530;49.540;8.576;2022-11-15T08:40:02;8.93;;;4.97;;
16826;SDS011;8530;49.540;8.576;2022-11-15T08:42:29;10.63;;;6.33;;
16826;SDS011;8530;49.540;8.576;2022-11-15T08:44:56;8.10;;;5.83;;
16826;SDS011;8530;49.540;8.576;2022-11-15T08:47:22;7.53;;;5.13;;
16826;SDS011;8530;49.540;8.576;2022-11-15T08:49:50;8.20;;;5.33;;
16826;SDS011;8530;49.540;8.576;2022-11-15T08:52:17;7.20;;;5.30;;
16826;SDS011;8530;49.540;8.576;2022-11-15T08:54:45;5.57;;;4.93;;
16826;SDS011;8530;49.540;8.576;2022-11-15T08:57:12;5.93;;;5.30;;
16826;SDS011;8530;49.540;8.576;2022-11-15T08:59:39;7.37;;;5.93;;
16826;SDS011;8530;49.540;8.576;2022-11-15T09:02:06;5.70;;;4.40;;
16826;SDS011;8530;49.540;8.576;2022-11-15T09:04:37;6.43;;;5.80;;
16826;SDS011;8530;49.540;8.576;2022-11-15T09:07:06;6.93;;;4.40;;
16826;SDS011;8530;49.540;8.576;2022-11-15T09:09:33;6.00;;;4.97;;
16826;SDS011;8530;49.540;8.576;2022-11-15T09:12:01;8.00;;;5.40;;
16826;SDS011;8530;49.540;8.576;2022-11-15T09:14:28;18.40;;;6.63;;
16826;SDS011;8530;49.540;8.576;2022-11-15T09:16:55;15.90;;;5.77;;
16826;SDS011;8530;49.540;8.576;2022-11-15T09:19:22;6.27;;;5.50;;
16826;SDS011;8530;49.540;8.576;2022-11-15T09:21:49;6.00;;;5.33;;
16826;SDS011;8530;49.540;8.576;2022-11-15T09:24:15;8.80;;;4.80;;
16826;SDS011;8530;49.540;8.576;2022-11-15T09:26:43;7.00;;;5.70;;
16826;SDS011;8530;49.540;8.576;2022-11-15T09:29:12;4.73;;;4.20;;
16826;SDS011;8530;49.540;8.576;2022-11-15T09:31:39;6.53;;;5.43;;
16826;SDS011;8530;49.540;8.576;2022-11-15T09:34:05;8.80;;;5.10;;
16826;SDS011;8530;49.540;8.576;2022-11-15T09:36:32;5.97;;;4.37;;
16826;SDS011;8530;49.540;8.576;2022-11-15T09:38:59;7.60;;;4.50;;
16826;SDS011;8530;49.540;8.576;2022-11-15T09:47:24;5.57;;;4.23;;
16826;SDS011;8530;49.540;8.576;2022-11-15T09:50:06;9.67;;;4.40;;
16826;SDS011;8530;49.540;8.576;2022-11-15T09:52:37;9.13;;;4.10;;
16826;SDS011;8530;49.540;8.576;2022-11-15T09:55:10;4.53;;;3.73;;
16826;SDS011;8530;49.540;8.576;2022-11-15T09:57:41;7.23;;;4.17;;
16826;SDS011;8530;49.540;8.576;2022-11-15T10:00:18;6.10;;;4.20;;
16826;SDS011;8530;49.540;8.576;2022-11-15T10:02:52;7.10;;;4.13;;
16826;SDS011;8530;49.540;8.576;2022-11-15T10:05:28;6.53;;;4.23;;
16826;SDS011;8530;49.540;8.576;2022-11-15T10:07:57;6.67;;;3.90;;
16826;SDS011;8530;49.540;8.576;2022-11-15T10:10:30;5.03;;;3.53;;
16826;SDS011;8530;49.540;8.576;2022-11-15T10:13:00;4.30;;;3.60;;
16826;SDS011;8530;49.540;8.576;2022-11-15T10:15:30;5.47;;;3.63;;
16826;SDS011;8530;49.540;8.576;2022-11-15T10:18:04;5.57;;;4.50;;
16826;SDS011;8530;49.540;8.576;2022-11-15T10:20:40;9.53;;;4.23;;
16826;SDS011;8530;49.540;8.576;2022-11-15T10:23:13;5.43;;;4.30;;
16826;SDS011;8530;49.540;8.576;2022-11-15T10:25:41;6.90;;;4.23;;
16826;SDS011;8530;49.540;8.576;2022-11-15T10:28:09;6.43;;;3.23;;
16826;SDS011;8530;49.540;8.576;2022-11-15T10:30:43;7.07;;;4.20;;
16826;SDS011;8530;49.540;8.576;2022-11-15T10:33:20;6.20;;;3.90;;
16826;SDS011;8530;49.540;8.576;2022-11-15T10:38:52;6.60;;;4.10;;
16826;SDS011;8530;49.540;8.576;2022-11-15T10:41:30;9.00;;;4.17;;
16826;SDS011;8530;49.540;8.576;2022-11-15T10:44:02;6.13;;;4.37;;
16826;SDS011;8530;49.540;8.576;2022-11-15T10:46:46;4.87;;;3.47;;
16826;SDS011;8530;49.540;8.576;2022-11-15T10:49:23;8.10;;;3.97;;
16826;SDS011;8530;49.540;8.576;2022-11-15T10:51:53;4.37;;;3.60;;
16826;SDS011;8530;49.540;8.576;2022-11-15T10:54:23;15.27;;;3.70;;
16826;SDS011;8530;49.540;8.576;2022-11-15T10:56:55;5.20;;;4.03;;
16826;SDS011;8530;49.540;8.576;2022-11-15T10:59:24;4.23;;;3.67;;
16826;SDS011;8530;49.540;8.576;2022-11-15T11:01:56;3.63;;;3.33;;
16826;SDS011;8530;49.540;8.576;2022-11-15T11:04:24;4.60;;;3.50;;
16826;SDS011;8530;49.540;8.576;2022-11-15T11:06:51;4.27;;;3.87;;
16826;SDS011;8530;49.540;8.576;2022-11-15T11:09:30;5.27;;;3.43;;
16826;SDS011;8530;49.540;8.576;2022-11-15T11:11:59;6.63;;;4.30;;
16826;SDS011;8530;49.540;8.576;2022-11-15T11:14:27;3.70;;;3.40;;
16826;SDS011;8530;49.540;8.576;2022-11-15T11:17:00;4.70;;;3.67;;
16826;SDS011;8530;49.540;8.576;2022-11-15T11:22:20;7.20;;;3.83;;
16826;SDS011;8530;49.540;8.576;2022-11-15T11:24:54;7.87;;;5.20;;
16826;SDS011;8530;49.540;8.576;2022-11-15T11:27:34;9.30;;;3.43;;
16826;SDS011;8530;49.540;8.576;2022-11-15T11:30:10;4.47;;;3.80;;
16826;SDS011;8530;49.540;8.576;2022-11-15T11:32:49;8.73;;;4.13;;
16826;SDS011;8530;49.540;8.576;2022-11-15T11:35:24;4.67;;;3.40;;
16826;SDS011;8530;49.540;8.576;2022-11-15T11:37:57;9.03;;;4.00;;
16826;SDS011;8530;49.540;8.576;2022-11-15T11:40:35;4.80;;;3.40;;
16826;SDS011;8530;49.540;8.576;2022-11-15T11:43:09;6.70;;;3.10;;
16826;SDS011;8530;49.540;8.576;2022-11-15T11:45:47;3.90;;;3.10;;
16826;SDS011;8530;49.540;8.576;2022-11-15T11:48:41;7.07;;;3.63;;
16826;SDS011;8530;49.540;8.576;2022-11-15T11:51:11;3.97;;;2.90;;
16826;SDS011;8530;49.540;8.576;2022-11-15T11:53:44;3.53;;;2.70;;
16826;SDS011;8530;49.540;8.576;2022-11-15T11:56:18;3.30;;;2.47;;
16826;SDS011;8530;49.540;8.576;2022-11-15T11:58:52;8.70;;;3.07;;
16826;SDS011;8530;49.540;8.576;2022-11-15T12:01:23;3.10;;;2.80;;
16826;SDS011;8530;49.540;8.576;2022-11-15T12:03:55;4.63;;;3.00;;
16826;SDS011;8530;49.540;8.576;2022-11-15T12:06:27;8.33;;;3.10;;
16826;SDS011;8530;49.540;8.576;2022-11-15T12:08:59;5.77;;;3.23;;
16826;SDS011;8530;49.540;8.576;2022-11-15T12:11:36;14.17;;;2.67;;
16826;SDS011;8530;49.540;8.576;2022-11-15T12:14:10;3.30;;;3.00;;
16826;SDS011;8530;49.540;8.576;2022-11-15T12:16:42;7.07;;;2.47;;
16826;SDS011;8530;49.540;8.576;2022-11-15T12:19:10;4.77;;;3.00;;
16826;SDS011;8530;49.540;8.576;2022-11-15T12:21:39;8.20;;;3.30;;
16826;SDS011;8530;49.540;8.576;2022-11-15T12:24:12;3.33;;;3.00;;
16826;SDS011;8530;49.540;8.576;2022-11-15T12:26:46;4.50;;;2.70;;
16826;SDS011;8530;49.540;8.576;2022-11-15T12:29:19;5.40;;;3.40;;
16826;SDS011;8530;49.540;8.576;2022-11-15T12:31:52;2.63;;;2.43;;
16826;SDS011;8530;49.540;8.576;2022-11-15T12:34:43;2.90;;;2.20;;
16826;SDS011;8530;49.540;8.576;2022-11-15T12:40:28;5.73;;;2.53;;
16826;SDS011;8530;49.540;8.576;2022-11-15T12:43:04;4.40;;;3.00;;
16826;SDS011;8530;49.540;8.576;2022-11-15T12:46:04;4.07;;;2.97;;
16826;SDS011;8530;49.540;8.576;2022-11-15T12:54:53;3.60;;;2.83;;
16826;SDS011;8530;49.540;8.576;2022-11-15T12:57:32;3.70;;;3.00;;
16826;SDS011;8530;49.540;8.576;2022-11-15T13:00:02;5.50;;;3.90;;
16826;SDS011;8530;49.540;8.576;2022-11-15T13:02:47;6.27;;;3.47;;
16826;SDS011;8530;49.540;8.576;2022-11-15T13:08:34;6.07;;;4.17;;
16826;SDS011;8530;49.540;8.576;2022-11-15T13:20:19;4.50;;;3.63;;
16826;SDS011;8530;49.540;8.576;2022-11-15T13:22:52;4.70;;;3.13;;
16826;SDS011;8530;49.540;8.576;2022-11-15T13:28:20;2.93;;;2.63;;
16826;SDS011;8530;49.540;8.576;2022-11-15T13:30:52;6.23;;;3.27;;
16826;SDS011;8530;49.540;8.576;2022-11-15T13:33:24;5.13;;;3.40;;
16826;SDS011;8530;49.540;8.576;2022-11-15T13:35:57;6.60;;;3.60;;
16826;SDS011;8530;49.540;8.576;2022-11-15T13:38:28;13.73;;;4.40;;
16826;SDS011;8530;49.540;8.576;2022-11-15T13:40:57;13.60;;;4.33;;
16826;SDS011;8530;49.540;8.576;2022-11-15T13:43:27;5.97;;;3.73;;
16826;SDS011;8530;49.540;8.576;2022-11-15T13:46:09;6.50;;;4.37;;
16826;SDS011;8530;49.540;8.576;2022-11-15T13:48:38;3.20;;;2.67;;
16826;SDS011;8530;49.540;8.576;2022-11-15T13:51:08;2.90;;;2.47;;
16826;SDS011;8530;49.540;8.576;2022-11-15T13:53:40;4.10;;;3.33;;
16826;SDS011;8530;49.540;8.576;2022-11-15T13:56:11;4.80;;;3.17;;
16826;SDS011;8530;49.540;8.576;2022-11-15T13:58:39;6.47;;;2.70;;
16826;SDS011;8530;49.540;8.576;2022-11-15T14:01:08;4.37;;;3.00;;
16826;SDS011;8530;49.540;8.576;2022-11-15T14:03:41;4.80;;;3.40;;
16826;SDS011;8530;49.540;8.576;2022-11-15T14:06:15;6.30;;;3.83;;
16826;SDS011;8530;49.540;8.576;2022-11-15T14:08:57;3.90;;;2.80;;
16826;SDS011;8530;49.540;8.576;2022-11-15T14:11:26;7.47;;;4.20;;
16826;SDS011;8530;49.540;8.576;2022-11-15T14:14:04;4.60;;;3.20;;
16826;SDS011;8530;49.540;8.576;2022-11-15T14:16:43;4.43;;;2.90;;
16826;SDS011;8530;49.540;8.576;2022-11-15T14:19:11;8.90;;;3.67;;
16826;SDS011;8530;49.540;8.576;2022-11-15T14:22:12;3.90;;;2.83;;
16826;SDS011;8530;49.540;8.576;2022-11-15T14:24:42;4.40;;;3.30;;
16826;SDS011;8530;49.540;8.576;2022-11-15T14:27:17;6.37;;;2.93;;
16826;SDS011;8530;49.540;8.576;2022-11-15T14:29:49;5.23;;;3.10;;
16826;SDS011;8530;49.540;8.576;2022-11-15T14:32:18;3.90;;;3.23;;
16826;SDS011;8530;49.540;8.576;2022-11-15T14:34:46;6.63;;;2.40;;
16826;SDS011;8530;49.540;8.576;2022-11-15T14:37:18;7.10;;;3.13;;
16826;SDS011;8530;49.540;8.576;2022-11-15T14:39:47;5.90;;;3.17;;
16826;SDS011;8530;49.540;8.576;2022-11-15T14:42:13;6.00;;;3.20;;
16826;SDS011;8530;49.540;8.576;2022-11-15T14:44:40;5.43;;;3.80;;
16826;SDS011;8530;49.540;8.576;2022-11-15T14:47:07;4.73;;;3.03;;
16826;SDS011;8530;49.540;8.576;2022-11-15T14:49:35;5.40;;;2.83;;
16826;SDS011;8530;49.540;8.576;2022-11-15T14:52:04;4.53;;;3.43;;
16826;SDS011;8530;49.540;8.576;2022-11-15T14:54:42;7.90;;;3.30;;
16826;SDS011;8530;49.540;8.576;2022-11-15T14:57:09;3.73;;;3.00;;
16826;SDS011;8530;49.540;8.576;2022-11-15T14:59:36;6.40;;;4.40;;
16826;SDS011;8530;49.540;8.576;2022-11-15T15:02:04;13.10;;;4.03;;
16826;SDS011;8530;49.540;8.576;2022-11-15T15:04:41;3.77;;;3.30;;
16826;SDS011;8530;49.540;8.576;2022-11-15T15:07:07;12.00;;;4.03;;
16826;SDS011;8530;49.540;8.576;2022-11-15T15:09:34;5.43;;;3.40;;
16826;SDS011;8530;49.540;8.576;2022-11-15T15:12:01;10.47;;;4.30;;
16826;SDS011;8530;49.540;8.576;2022-11-15T15:14:28;7.33;;;4.70;;
16826;SDS011;8530;49.540;8.576;2022-11-15T15:16:55;4.60;;;4.20;;
16826;SDS011;8530;49.540;8.576;2022-11-15T15:19:22;8.03;;;5.20;;
16826;SDS011;8530;49.540;8.576;2022-11-15T15:21:50;6.73;;;4.93;;
16826;SDS011;8530;49.540;8.576;2022-11-15T15:24:17;5.77;;;4.40;;
16826;SDS011;8530;49.540;8.576;2022-11-15T15:26:44;6.70;;;4.73;;
16826;SDS011;8530;49.540;8.576;2022-11-15T15:29:11;5.20;;;4.53;;
16826;SDS011;8530;49.540;8.576;2022-11-15T15:31:37;6.70;;;4.10;;
16826;SDS011;8530;49.540;8.576;2022-11-15T15:34:04;7.57;;;4.83;;
16826;SDS011;8530;49.540;8.576;2022-11-15T15:36:31;14.93;;;4.17;;
16826;SDS011;8530;49.540;8.576;2022-11-15T15:38:59;10.23;;;4.30;;
16826;SDS011;8530;49.540;8.576;2022-11-15T15:41:25;6.77;;;4.80;;
16826;SDS011;8530;49.540;8.576;2022-11-15T15:43:52;5.13;;;4.53;;
16826;SDS011;8530;49.540;8.576;2022-11-15T15:46:19;7.50;;;5.33;;
16826;SDS011;8530;49.540;8.576;2022-11-15T15:48:46;10.43;;;5.10;;
16826;SDS011;8530;49.540;8.576;2022-11-15T15:51:14;10.40;;;6.70;;
16826;SDS011;8530;49.540;8.576;2022-11-15T15:53:40;16.37;;;11.87;;
16826;SDS011;8530;49.540;8.576;2022-11-15T15:56:10;12.70;;;8.60;;
16826;SDS011;8530;49.540;8.576;2022-11-15T15:58:37;8.13;;;6.20;;